Time;durP1;ratioP1;P1;durP2;ratioP2;P2;SDS_P1;SDS_P2;PMS_P1;PMS_P2;Temp;Humidity;BMP_temperature;BMP_pressure;BME280_temperature;BME280_humidity;BME280_pressure;Samples;Min_cycle;Max_cycle;Signal;HPM_P1;HPM_P2
2022/01/17 00:00:36;;;;;;;9.30;2.70;;;;;;;-4.73;68.02;97426.28;5105884;28;20044;-78
2022/01/17 00:03:03;;;;;;;10.63;2.70;;;;;;;-4.79;68.52;97439.72;5076928;28;20512;-77
2022/01/17 00:05:31;;;;;;;13.40;3.50;;;;;;;-4.75;67.47;97417.69;5082775;28;20077;-78
2022/01/17 00:07:57;;;;;;;9.93;2.95;;;;;;;-4.66;67.85;97420.03;5084262;28;20055;-77
2022/01/17 00:10:23;;;;;;;22.30;3.70;;;;;;;-4.61;67.69;97412.13;5072875;28;20281;-78
2022/01/17 00:12:52;;;;;;;14.43;3.33;;;;;;;-4.53;67.68;97417.06;5091904;28;20110;-78
2022/01/17 00:15:29;;;;;;;9.77;3.17;;;;;;;-4.67;67.75;97416.53;5088991;28;20139;-77
2022/01/17 00:20:46;;;;;;;13.33;3.67;;;;;;;-4.69;68.05;97434.63;5081388;28;20467;-76
2022/01/17 00:23:13;;;;;;;15.27;3.10;;;;;;;-4.79;68.46;97411.22;5090162;28;20045;-75
2022/01/17 00:25:39;;;;;;;14.27;3.07;;;;;;;-4.63;68.06;97435.56;5083950;28;20147;-76
2022/01/17 00:28:05;;;;;;;11.37;2.70;;;;;;;-4.62;68.08;97381.94;5075576;28;20072;-76
2022/01/17 00:30:32;;;;;;;12.47;2.57;;;;;;;-4.59;67.54;97388.69;5074836;28;20094;-76
2022/01/17 00:32:58;;;;;;;16.30;3.13;;;;;;;-4.65;67.65;97379.75;5078604;28;20052;-76
2022/01/17 00:35:25;;;;;;;12.93;2.60;;;;;;;-4.60;67.87;97379.88;5074017;28;20090;-76
2022/01/17 00:37:52;;;;;;;12.10;2.30;;;;;;;-4.61;67.35;97382.78;5076357;28;20048;-78
2022/01/17 00:40:18;;;;;;;;;;;;;;;-4.52;67.75;97353.88;5077808;28;20111;-77
2022/01/17 00:42:45;;;;;;;7.30;2.10;;;;;;;-4.56;67.58;97359.69;5090771;28;19935;-77
2022/01/17 00:45:13;;;;;;;9.83;2.37;;;;;;;-4.65;67.90;97365.63;5082431;28;20093;-77
2022/01/17 00:47:40;;;;;;;9.63;2.20;;;;;;;-4.57;67.75;97357.25;5081317;28;20051;-77
2022/01/17 00:50:07;;;;;;;10.17;2.43;;;;;;;-4.66;67.74;97305.34;5077977;28;20044;-78
2022/01/17 00:52:33;;;;;;;12.05;2.08;;;;;;;-4.76;68.44;97328.09;5058686;28;20048;-78
2022/01/17 00:55:01;;;;;;;12.43;2.13;;;;;;;-4.70;68.13;97348.47;5064516;28;20057;-78
2022/01/17 00:57:27;;;;;;;13.88;2.45;;;;;;;-4.70;68.45;97311.13;5079531;28;20393;-77
2022/01/17 00:59:53;;;;;;;13.03;2.60;;;;;;;-4.68;68.20;97310.06;5071930;28;20057;-78
2022/01/17 01:02:20;;;;;;;13.63;2.53;;;;;;;-4.76;68.71;97295.25;5084856;28;20064;-78
2022/01/17 01:04:46;;;;;;;9.20;2.67;;;;;;;-4.65;68.62;97262.41;5091479;28;20075;-79
2022/01/17 01:07:12;;;;;;;8.20;2.37;;;;;;;-4.61;68.34;97276.88;5075264;28;20547;-79
2022/01/17 01:09:49;;;;;;;13.17;2.50;;;;;;;-4.54;68.02;97262.63;5073965;28;20048;-79
2022/01/17 01:12:17;;;;;;;11.98;2.90;;;;;;;-4.54;68.02;97260.75;5080376;28;20546;-79
2022/01/17 01:14:43;;;;;;;12.75;2.80;;;;;;;-4.64;68.15;97271.25;5074477;28;20089;-79
2022/01/17 01:17:20;;;;;;;7.93;2.30;;;;;;;-4.56;67.98;97249.50;5084363;28;20240;-78
2022/01/17 01:19:56;;;;;;;8.93;2.15;;;;;;;-4.45;67.46;97274.50;5076703;28;20044;-78
2022/01/17 01:27:56;;;;;;;7.53;2.23;;;;;;;-4.42;67.26;97256.16;5080856;28;20484;-77
2022/01/17 01:30:25;;;;;;;13.53;2.43;;;;;;;-4.43;67.57;97206.53;5070394;28;20072;-78
2022/01/17 01:32:55;;;;;;;9.00;2.20;;;;;;;-4.39;67.30;97222.03;5081490;28;20058;-77
2022/01/17 01:35:23;;;;;;;7.60;2.10;;;;;;;-4.41;67.36;97208.97;5070156;28;20506;-77
2022/01/17 01:37:50;;;;;;;6.23;1.90;;;;;;;-4.41;67.23;97206.28;5081800;28;20052;-77
2022/01/17 01:40:18;;;;;;;9.20;2.03;;;;;;;-4.33;66.92;97213.09;5083655;28;20416;-76
2022/01/17 01:42:46;;;;;;;9.53;2.17;;;;;;;-4.42;67.18;97218.81;5074866;28;20057;-77
2022/01/17 01:45:14;;;;;;;10.93;1.92;;;;;;;-4.30;66.65;97183.25;5081063;28;20051;-76
2022/01/17 01:47:42;;;;;;;7.37;1.83;;;;;;;-4.28;66.59;97187.31;5072377;28;20104;-77
2022/01/17 01:50:10;;;;;;;6.07;1.40;;;;;;;-4.31;66.78;97169.09;5071531;28;20501;-77
2022/01/17 01:52:41;;;;;;;11.40;2.00;;;;;;;-4.37;66.92;97183.41;5090406;28;20067;-79
2022/01/17 01:55:10;;;;;;;8.17;2.13;;;;;;;-4.31;66.54;97174.44;5085683;28;20056;-77
2022/01/17 01:57:36;;;;;;;16.60;2.97;;;;;;;-4.31;66.23;97181.63;5074400;28;20068;-77
2022/01/17 02:00:05;;;;;;;14.07;2.33;;;;;;;-4.36;66.37;97157.56;5088860;28;20044;-76
2022/01/17 02:02:33;;;;;;;10.10;2.20;;;;;;;-4.25;66.16;97188.66;5078089;28;20403;-76
2022/01/17 02:04:59;;;;;;;11.38;2.25;;;;;;;-4.47;66.33;97149.38;5057119;28;20428;-76
2022/01/17 02:07:25;;;;;;;8.97;1.63;;;;;;;-4.31;65.88;97163.75;5098514;28;20043;-80
2022/01/17 02:09:51;;;;;;;6.60;1.47;;;;;;;-4.27;65.85;97164.91;5075537;28;20040;-78
2022/01/17 02:12:21;;;;;;;9.20;2.43;;;;;;;-4.22;65.55;97155.34;5084265;28;20043;-77
2022/01/17 02:14:48;;;;;;;4.67;1.50;;;;;;;-4.18;65.40;97146.63;5087560;28;20112;-78
2022/01/17 02:17:14;;;;;;;7.10;2.33;;;;;;;-4.19;65.30;97146.84;5090640;28;20524;-77
2022/01/17 02:19:46;;;;;;;13.13;2.10;;;;;;;-4.32;65.59;97105.31;5078380;28;20036;-77
2022/01/17 02:22:14;;;;;;;11.03;2.03;;;;;;;-4.27;65.36;97105.38;5084502;28;20163;-79
2022/01/17 02:24:40;;;;;;;10.63;2.00;;;;;;;-4.26;65.37;97101.66;5083569;28;20045;-78
2022/01/17 02:27:07;;;;;;;9.30;1.57;;;;;;;-4.31;65.11;97146.94;5079089;28;20068;-78
2022/01/17 02:29:33;;;;;;;8.20;1.67;;;;;;;-4.22;65.07;97077.97;5069660;28;20059;-79
2022/01/17 02:31:59;;;;;;;6.10;1.47;;;;;;;-4.20;65.30;97099.88;5075936;28;20055;-79
2022/01/17 02:34:26;;;;;;;7.60;1.30;;;;;;;-4.23;65.21;97063.00;5063453;28;20048;-79
2022/01/17 02:36:52;;;;;;;9.87;1.80;;;;;;;-4.22;65.11;97036.06;5074321;28;20048;-79
2022/01/17 02:39:19;;;;;;;10.03;2.23;;;;;;;-4.22;65.04;97060.06;5076264;28;20127;-79
2022/01/17 02:41:49;;;;;;;5.93;1.70;;;;;;;-4.16;64.91;97060.94;5075238;28;20076;-79
2022/01/17 02:44:16;;;;;;;12.73;1.90;;;;;;;-4.20;64.89;97046.50;5071082;28;20048;-78
2022/01/17 02:46:42;;;;;;;8.90;2.53;;;;;;;-4.24;65.29;97030.16;5082528;28;20357;-77
2022/01/17 02:49:09;;;;;;;9.57;1.87;;;;;;;-4.31;65.30;97038.34;5069066;28;20143;-77
2022/01/17 02:51:35;;;;;;;8.30;2.07;;;;;;;-4.14;65.11;97010.78;5072351;28;20040;-77
2022/01/17 02:54:02;;;;;;;15.87;2.40;;;;;;;-4.20;65.21;97063.31;5077831;28;20420;-79
2022/01/17 02:56:30;;;;;;;7.82;1.80;;;;;;;-4.24;65.32;97011.47;5101292;28;20076;-79
2022/01/17 02:58:56;;;;;;;7.33;2.00;;;;;;;-4.24;65.21;97035.50;5083188;28;20048;-80
2022/01/17 03:01:25;;;;;;;7.30;2.10;;;;;;;-4.19;65.37;97040.91;5080203;28;20550;-79
2022/01/17 03:03:52;;;;;;;8.40;2.13;;;;;;;-4.25;65.15;97041.09;5081807;28;20143;-80
2022/01/17 03:06:18;;;;;;;13.47;2.10;;;;;;;-4.18;64.90;96989.16;5084733;28;20044;-79
2022/01/17 03:08:45;;;;;;;7.83;1.67;;;;;;;-4.31;65.46;97013.53;5075351;28;20044;-73
2022/01/17 03:11:16;;;;;;;10.67;2.57;;;;;;;-4.22;65.12;96992.56;5079325;28;20058;-73
2022/01/17 03:13:45;;;;;;;9.87;1.70;;;;;;;-4.25;65.10;97006.41;5047615;28;20071;-73
2022/01/17 03:16:14;;;;;;;10.10;1.80;;;;;;;-4.25;65.37;97025.88;5072658;28;20130;-74
2022/01/17 03:18:42;;;;;;;7.67;1.50;;;;;;;-4.24;65.14;96998.13;5086065;28;20079;-70
2022/01/17 03:21:11;;;;;;;8.50;1.70;;;;;;;-4.16;64.99;96964.88;5090589;28;20039;-69
2022/01/17 03:23:39;;;;;;;7.77;2.00;;;;;;;-4.24;65.05;96984.78;5080802;28;20049;-68
2022/01/17 03:26:06;;;;;;;4.90;1.50;;;;;;;-4.28;64.83;96968.50;5085313;28;20044;-70
2022/01/17 03:28:32;;;;;;;11.43;2.10;;;;;;;-4.07;64.70;96987.41;5089008;28;20048;-69
2022/01/17 03:31:00;;;;;;;7.23;1.70;;;;;;;-4.21;64.66;96970.97;5085397;28;20044;-70
2022/01/17 03:33:27;;;;;;;10.50;2.40;;;;;;;-4.21;64.67;96995.00;5081789;28;20477;-70
2022/01/17 03:35:53;;;;;;;13.45;2.40;;;;;;;-4.09;64.52;96959.34;5085127;28;20052;-71
2022/01/17 03:38:22;;;;;;;13.40;2.10;;;;;;;-4.11;64.51;96966.81;5082082;28;20261;-68
2022/01/17 03:40:51;;;;;;;7.20;1.53;;;;;;;-4.08;64.27;96940.41;5083518;28;20538;-69
2022/01/17 03:43:17;;;;;;;5.37;1.47;;;;;;;-4.16;64.69;96971.03;5090814;28;20408;-70
2022/01/17 03:45:45;;;;;;;8.53;1.87;;;;;;;-4.23;64.31;96953.59;5092383;28;20142;-71
2022/01/17 03:48:13;;;;;;;7.55;1.80;;;;;;;-4.23;64.69;96954.38;5084320;28;20048;-70
2022/01/17 03:50:40;;;;;;;9.40;2.43;;;;;;;-4.18;64.40;96959.78;5084209;28;20040;-70
2022/01/17 03:53:06;;;;;;;11.18;1.98;;;;;;;-4.14;64.29;96950.22;5088043;28;20170;-69
2022/01/17 03:55:34;;;;;;;6.97;1.90;;;;;;;-4.06;64.17;96924.13;5079554;28;20051;-71
2022/01/17 03:58:02;;;;;;;15.33;2.43;;;;;;;-4.14;64.25;96906.72;5088865;28;20415;-71
2022/01/17 04:00:30;;;;;;;7.93;1.77;;;;;;;-4.07;64.06;96903.84;5079504;28;20036;-70
2022/01/17 04:02:57;;;;;;;7.73;1.97;;;;;;;-4.21;64.17;96890.91;5072864;28;20040;-70
2022/01/17 04:05:25;;;;;;;11.77;2.28;;;;;;;-4.10;63.90;96902.50;5080362;28;20049;-71
2022/01/17 04:07:51;;;;;;;11.23;2.03;;;;;;;-4.08;64.10;96889.72;5084165;28;20044;-70
2022/01/17 04:10:20;;;;;;;5.53;1.93;;;;;;;-4.04;63.67;96885.47;5055190;28;20055;-72
2022/01/17 04:12:46;;;;;;;9.23;1.63;;;;;;;-4.05;64.02;96915.09;5082306;28;20048;-71
2022/01/17 04:15:13;;;;;;;10.43;2.00;;;;;;;-4.18;63.72;96863.72;5054631;28;20044;-70
2022/01/17 04:17:41;;;;;;;10.00;2.03;;;;;;;-4.13;63.53;96879.00;5083539;28;20101;-69
2022/01/17 04:20:13;;;;;;;7.60;2.10;;;;;;;-4.11;63.76;96876.06;5084571;28;20105;-71
2022/01/17 04:22:49;;;;;;;7.73;2.13;;;;;;;-4.12;63.94;96872.59;5068050;28;20049;-71
2022/01/17 04:25:16;;;;;;;7.73;1.83;;;;;;;-4.10;63.67;96859.78;5073190;28;20058;-71
2022/01/17 04:27:42;;;;;;;5.40;1.63;;;;;;;-4.09;63.56;96873.94;5089425;28;20048;-71
2022/01/17 04:30:09;;;;;;;11.73;1.87;;;;;;;-4.06;63.40;96850.22;5087315;28;20040;-69
2022/01/17 04:32:35;;;;;;;8.18;2.20;;;;;;;-4.08;63.44;96846.19;5078945;28;20044;-70
2022/01/17 04:35:02;;;;;;;6.53;1.90;;;;;;;-4.06;63.17;96874.25;5084180;28;20063;-68
2022/01/17 04:37:29;;;;;;;11.10;1.90;;;;;;;-4.09;63.36;96837.38;5082791;28;20047;-70
2022/01/17 04:39:56;;;;;;;10.03;2.00;;;;;;;-4.13;63.72;96836.28;5089768;28;20136;-70
2022/01/17 04:42:27;;;;;;;8.18;1.85;;;;;;;-4.21;63.87;96831.38;5070021;28;20036;-71
2022/01/17 04:45:16;;;;;;;8.20;2.20;;;;;;;-4.21;63.91;96804.69;5076857;28;20048;-69
2022/01/17 04:47:46;;;;;;;9.80;2.27;;;;;;;-4.12;63.58;96803.19;5078038;28;20604;-70
2022/01/17 04:50:14;;;;;;;8.17;1.93;;;;;;;-4.16;63.57;96816.22;5082536;28;20047;-70
2022/01/17 04:52:40;;;;;;;7.13;1.80;;;;;;;-4.16;63.61;96799.41;5062482;28;20420;-69
2022/01/17 04:55:11;;;;;;;8.27;2.33;;;;;;;-4.09;63.45;96800.03;5082140;28;20052;-69
2022/01/17 04:57:38;;;;;;;6.43;1.90;;;;;;;-4.08;63.13;96787.47;5089206;28;20048;-70
2022/01/17 05:00:06;;;;;;;13.63;2.70;;;;;;;-4.16;63.57;96794.88;5091323;28;20527;-71
2022/01/17 05:02:33;;;;;;;13.57;2.63;;;;;;;-4.14;63.51;96789.28;5083418;28;20043;-70
2022/01/17 05:05:02;;;;;;;9.43;2.20;;;;;;;-4.18;64.16;96781.00;5075797;28;20043;-70
2022/01/17 05:07:29;;;;;;;9.97;2.00;;;;;;;-4.15;64.59;96752.97;5068686;28;20488;-70
2022/01/17 05:09:56;;;;;;;8.03;1.90;;;;;;;-4.16;64.71;96744.19;5072171;28;20048;-70
2022/01/17 05:12:24;;;;;;;10.77;2.40;;;;;;;-4.18;65.20;96745.47;5084283;28;20036;-70
2022/01/17 05:14:52;;;;;;;13.87;2.87;;;;;;;-4.08;65.34;96734.91;5080199;28;20061;-70
2022/01/17 05:20:00;;;;;;;7.50;1.90;;;;;;;-4.19;66.53;96771.38;5089846;28;20044;-71
2022/01/17 05:22:31;;;;;;;10.40;2.33;;;;;;;-4.22;67.15;96731.84;5086323;28;20474;-70
2022/01/17 05:24:58;;;;;;;10.23;2.33;;;;;;;-4.27;67.54;96756.63;5079101;28;20456;-71
2022/01/17 05:27:25;;;;;;;11.27;2.37;;;;;;;-4.36;68.05;96734.13;5083114;28;20044;-68
2022/01/17 05:29:51;;;;;;;7.97;1.80;;;;;;;-4.25;68.07;96743.03;5084852;28;20143;-71
2022/01/17 05:32:17;;;;;;;15.47;2.30;;;;;;;-4.30;68.12;96722.44;5088574;28;20044;-70
2022/01/17 05:34:44;;;;;;;8.70;2.00;;;;;;;-4.32;68.33;96747.78;5068830;28;20058;-70
2022/01/17 05:37:12;;;;;;;12.40;2.50;;;;;;;-4.35;68.86;96714.38;5089896;28;20048;-69
2022/01/17 05:39:38;;;;;;;12.10;2.70;;;;;;;-4.37;69.19;96723.69;5083812;28;20082;-71
2022/01/17 05:42:05;;;;;;;11.50;2.60;;;;;;;-4.31;68.82;96704.03;5087723;28;20492;-70
2022/01/17 05:44:35;;;;;;;10.32;2.25;;;;;;;-4.36;69.24;96709.31;5071603;28;20055;-71
2022/01/17 05:47:03;;;;;;;15.20;2.20;;;;;;;-4.31;69.24;96696.03;5069016;28;20696;-72
2022/01/17 05:49:29;;;;;;;12.67;2.70;;;;;;;-4.32;69.23;96689.06;5075439;28;20044;-70
2022/01/17 05:51:56;;;;;;;13.27;2.73;;;;;;;-4.35;69.18;96700.25;5086077;28;20048;-70
2022/01/17 05:54:22;;;;;;;12.23;2.53;;;;;;;-4.35;69.62;96710.94;5086619;28;20048;-71
2022/01/17 05:56:48;;;;;;;13.10;3.30;;;;;;;-4.37;69.58;96694.34;5081902;28;20048;-71
2022/01/17 05:59:14;;;;;;;11.17;2.70;;;;;;;-4.41;70.10;96699.41;5082187;28;20048;-72
2022/01/17 06:01:44;;;;;;;12.80;2.47;;;;;;;-4.47;70.14;96653.22;5090022;28;20641;-71
2022/01/17 06:04:10;;;;;;;12.90;3.10;;;;;;;-4.35;70.00;96670.91;5082927;28;20042;-71
2022/01/17 06:06:36;;;;;;;17.70;3.67;;;;;;;-4.34;70.02;96643.19;5073387;28;20044;-71
2022/01/17 06:09:03;;;;;;;18.67;3.43;;;;;;;-4.26;70.07;96613.34;5074487;28;20048;-71
2022/01/17 06:11:30;;;;;;;15.43;3.73;;;;;;;-4.34;70.47;96621.84;5089506;28;20055;-70
2022/01/17 06:13:57;;;;;;;14.60;3.72;;;;;;;-4.36;70.60;96590.06;5079090;28;20048;-69
2022/01/17 06:16:24;;;;;;;14.80;4.05;;;;;;;-4.35;70.92;96577.53;5078502;28;20050;-69
2022/01/17 06:18:51;;;;;;;14.27;3.47;;;;;;;-4.43;71.00;96610.84;5071261;28;20063;-71
2022/01/17 06:21:17;;;;;;;15.77;3.47;;;;;;;-4.33;70.94;96656.25;5071964;28;20044;-68
2022/01/17 06:23:44;;;;;;;14.73;3.07;;;;;;;-4.31;71.23;96667.47;5077681;28;20075;-68
2022/01/17 06:26:10;;;;;;;16.53;3.60;;;;;;;-4.20;71.06;96699.56;5077853;28;20198;-69
2022/01/17 06:28:37;;;;;;;14.50;3.50;;;;;;;-4.18;71.13;96756.97;5077475;28;20052;-68
2022/01/17 06:31:03;;;;;;;16.27;3.80;;;;;;;-4.20;71.24;96761.75;5085446;28;20075;-68
2022/01/17 06:33:29;;;;;;;16.83;4.33;;;;;;;-4.16;71.32;96770.03;5079656;28;20395;-72
2022/01/17 06:35:56;;;;;;;14.43;3.77;;;;;;;-4.11;71.26;96726.59;5078911;28;20473;-73
2022/01/17 06:38:22;;;;;;;16.10;4.18;;;;;;;-4.13;71.02;96684.94;5077121;28;20043;-73
2022/01/17 06:40:48;;;;;;;16.20;4.13;;;;;;;-4.09;71.25;96655.06;5088774;28;20078;-73
2022/01/17 06:43:14;;;;;;;15.73;4.03;;;;;;;-4.09;71.07;96633.72;5087928;28;20370;-73
2022/01/17 06:45:41;;;;;;;18.03;4.20;;;;;;;-4.00;71.08;96610.84;5094640;28;20098;-73
2022/01/17 06:48:07;;;;;;;18.43;4.03;;;;;;;-4.00;70.81;96582.25;5095432;28;20167;-72
2022/01/17 06:50:33;;;;;;;20.73;4.50;;;;;;;-4.16;71.22;96569.91;5087250;28;20416;-72
2022/01/17 06:53:01;;;;;;;11.30;3.17;;;;;;;-4.18;71.10;96572.84;5075166;28;20048;-72
2022/01/17 06:55:27;;;;;;;;;;;;;;;-4.26;71.63;96554.63;5075302;28;20048;-73
2022/01/17 06:57:53;;;;;;;18.37;3.70;;;;;;;-4.22;71.58;96574.41;5075112;28;19924;-74
2022/01/17 07:00:20;;;;;;;20.00;4.50;;;;;;;-4.22;71.41;96595.75;5058855;28;20067;-73
2022/01/17 07:02:46;;;;;;;15.50;3.47;;;;;;;-4.16;71.48;96584.06;5064914;28;20466;-73
2022/01/17 07:05:13;;;;;;;16.47;5.10;;;;;;;-4.06;70.65;96559.28;5084145;28;20509;-74
2022/01/17 07:07:40;;;;;;;13.68;3.83;;;;;;;-4.07;70.79;96567.53;5080435;28;20048;-73
2022/01/17 07:10:08;;;;;;;15.03;4.13;;;;;;;-4.08;70.44;96579.28;5088341;28;20051;-74
2022/01/17 07:12:38;;;;;;;12.90;3.80;;;;;;;-4.02;70.74;96600.41;5056910;28;20060;-74
2022/01/17 07:15:05;;;;;;;17.10;4.00;;;;;;;-4.02;70.48;96592.38;5088289;28;20056;-74
2022/01/17 07:17:32;;;;;;;15.10;3.80;;;;;;;-4.01;70.36;96577.19;5090273;28;20397;-73
2022/01/17 07:19:58;;;;;;;18.13;3.87;;;;;;;-4.06;70.70;96553.94;5085985;28;20045;-73
2022/01/17 07:22:24;;;;;;;12.87;3.90;;;;;;;-4.11;70.59;96559.25;5088440;28;20088;-73
2022/01/17 07:24:51;;;;;;;18.83;4.57;;;;;;;-4.12;70.92;96528.31;5065638;28;20055;-78
2022/01/17 07:27:18;;;;;;;18.63;4.10;;;;;;;-4.12;70.89;96565.66;5055612;28;20052;-78
2022/01/17 07:29:44;;;;;;;;;;;;;;;-4.05;70.89;96552.88;5085568;28;20135;-73
2022/01/17 07:32:10;;;;;;;14.37;3.80;;;;;;;-4.04;70.83;96541.13;5073721;28;20015;-72
2022/01/17 07:34:36;;;;;;;10.37;3.27;;;;;;;-4.05;70.90;96526.19;5085599;28;20509;-73
2022/01/17 07:37:03;;;;;;;12.63;3.30;;;;;;;-4.05;70.78;96526.19;5093470;28;20051;-74
2022/01/17 07:39:30;;;;;;;14.70;3.80;;;;;;;-4.14;71.07;96547.22;5083087;28;20048;-73
2022/01/17 07:41:56;;;;;;;14.45;4.03;;;;;;;-4.02;71.20;96531.00;5088738;28;20047;-74
2022/01/17 07:44:26;;;;;;;15.20;4.80;;;;;;;-4.06;71.01;96497.91;5095403;28;20128;-72
2022/01/17 07:46:57;;;;;;;15.67;4.33;;;;;;;-3.99;70.82;96517.13;5089274;28;20054;-74
2022/01/17 07:49:25;;;;;;;10.73;3.57;;;;;;;-4.18;71.70;96502.63;5078077;28;20062;-72
2022/01/17 07:51:59;;;;;;;16.47;4.33;;;;;;;-4.12;71.67;96504.28;5079007;28;20044;-73
2022/01/17 07:54:26;;;;;;;11.03;3.30;;;;;;;-4.17;71.84;96485.56;5086526;28;20071;-72
2022/01/17 07:56:53;;;;;;;15.98;4.28;;;;;;;-4.18;71.75;96500.78;5079613;28;20182;-71
2022/01/17 07:59:20;;;;;;;13.87;3.80;;;;;;;-4.15;71.76;96475.44;5089036;28;20048;-74
2022/01/17 08:01:48;;;;;;;12.18;3.88;;;;;;;-4.09;71.93;96466.41;5090226;28;20052;-74
2022/01/17 08:04:14;;;;;;;13.43;3.70;;;;;;;-4.11;71.84;96462.38;5085456;28;20075;-74
2022/01/17 08:06:41;;;;;;;12.27;3.63;;;;;;;-4.17;72.34;96456.22;5086291;28;20516;-74
2022/01/17 08:09:09;;;;;;;15.43;4.20;;;;;;;-4.10;72.28;96463.97;5093827;28;20413;-76
2022/01/17 08:11:36;;;;;;;13.03;4.83;;;;;;;-4.06;72.12;96483.72;5090655;28;20040;-73
2022/01/17 08:14:05;;;;;;;13.87;3.93;;;;;;;-4.09;72.22;96462.91;5089152;28;20525;-74
2022/01/17 08:16:31;;;;;;;20.73;4.47;;;;;;;-4.06;72.39;96483.72;5071119;28;20522;-69
2022/01/17 08:18:59;;;;;;;16.00;4.10;;;;;;;-4.09;72.70;96462.91;5091237;28;20479;-69
2022/01/17 08:21:25;;;;;;;14.65;3.90;;;;;;;-4.00;72.27;96462.13;5072814;28;20043;-72
2022/01/17 08:23:54;;;;;;;16.40;4.33;;;;;;;-3.93;72.09;96448.53;5089035;28;20530;-70
2022/01/17 08:26:21;;;;;;;14.47;4.70;;;;;;;-3.87;72.06;96463.53;5091103;28;20040;-71
2022/01/17 08:28:48;;;;;;;13.68;3.72;;;;;;;-3.91;71.99;96426.94;5087161;28;20051;-71
2022/01/17 08:31:14;;;;;;;10.50;3.77;;;;;;;-3.85;72.10;96458.72;5087540;28;20067;-71
2022/01/17 08:33:40;;;;;;;14.37;4.30;;;;;;;-3.92;71.80;96444.81;5079312;28;20040;-71
2022/01/17 08:36:11;;;;;;;15.60;4.27;;;;;;;-3.79;71.82;96429.34;5088757;28;20121;-72
2022/01/17 08:38:37;;;;;;;16.33;5.17;;;;;;;-3.81;71.53;96434.16;5082195;28;20050;-71
2022/01/17 08:41:04;;;;;;;21.47;5.07;;;;;;;-3.74;71.36;96418.69;5092171;28;20040;-72
2022/01/17 08:43:30;;;;;;;19.03;4.20;;;;;;;-3.79;71.59;96435.50;5087436;28;20047;-70
2022/01/17 08:45:56;;;;;;;13.77;4.73;;;;;;;-3.78;71.61;96425.63;5092564;28;20097;-71
2022/01/17 08:48:23;;;;;;;16.80;4.60;;;;;;;-3.82;71.67;96440.56;5092546;28;20145;-70
2022/01/17 08:50:51;;;;;;;15.20;4.28;;;;;;;-3.80;71.50;96435.75;5088681;28;20504;-70
2022/01/17 08:53:20;;;;;;;12.73;4.50;;;;;;;-3.75;71.27;96425.09;5088846;28;20587;-70
2022/01/17 08:55:47;;;;;;;17.65;5.13;;;;;;;-3.79;71.39;96440.84;5091834;28;20097;-69
2022/01/17 08:58:16;;;;;;;16.45;4.75;;;;;;;-3.77;71.38;96433.38;5087592;28;20499;-71
2022/01/17 09:00:43;;;;;;;16.63;4.57;;;;;;;-3.83;71.65;96414.94;5090773;28;20455;-70
2022/01/17 09:03:10;;;;;;;14.57;4.97;;;;;;;-3.82;71.57;96412.00;5085630;28;20052;-70
2022/01/17 09:05:37;;;;;;;12.90;4.53;;;;;;;-3.82;71.17;96430.72;5076019;28;20105;-70
2022/01/17 09:08:05;;;;;;;15.40;4.57;;;;;;;-3.93;71.66;96415.72;5072681;28;20050;-70
2022/01/17 09:10:34;;;;;;;17.33;4.83;;;;;;;-3.91;71.69;96426.94;5070632;28;20049;-70
2022/01/17 09:13:00;;;;;;;13.13;5.43;;;;;;;-3.91;71.35;96424.28;5062191;28;20040;-70
2022/01/17 09:15:26;;;;;;;18.03;5.93;;;;;;;-3.88;71.24;96402.38;5075799;28;20056;-73
2022/01/17 09:17:56;;;;;;;13.67;4.50;;;;;;;-3.83;71.17;96398.91;5072024;28;20136;-70
2022/01/17 09:20:22;;;;;;;16.63;4.87;;;;;;;-3.82;70.88;96393.31;5081475;28;20101;-73
2022/01/17 09:22:51;;;;;;;16.70;5.20;;;;;;;-3.78;70.97;96405.06;5092205;28;20044;-73
2022/01/17 09:25:17;;;;;;;17.27;5.57;;;;;;;-3.81;71.05;96396.78;5078475;28;20056;-73
2022/01/17 09:27:48;;;;;;;18.40;5.33;;;;;;;-3.81;71.43;96404.78;5072130;28;20047;-73
2022/01/17 09:30:16;;;;;;;14.23;4.90;;;;;;;-3.74;71.15;96397.34;5078955;28;20039;-72
2022/01/17 09:32:42;;;;;;;17.48;5.03;;;;;;;-3.79;71.04;96375.94;5089518;28;20063;-72
2022/01/17 09:35:14;;;;;;;22.43;5.60;;;;;;;-3.83;71.16;96386.34;5078597;28;20492;-73
2022/01/17 09:37:42;;;;;;;16.40;5.27;;;;;;;-3.81;71.45;96407.47;5072088;28;20040;-73
2022/01/17 09:40:09;;;;;;;15.43;4.67;;;;;;;-3.78;71.55;96378.38;5076341;28;20046;-73
2022/01/17 09:42:37;;;;;;;;;;;;;;;-3.73;71.69;96365.00;5074019;28;20047;-74
2022/01/17 09:45:08;;;;;;;17.83;5.75;;;;;;;-3.68;71.44;96350.88;5075365;28;19924;-73
2022/01/17 09:47:36;;;;;;;22.27;7.13;;;;;;;-3.69;71.50;96343.94;5082152;28;20036;-73
2022/01/17 09:50:06;;;;;;;22.67;6.33;;;;;;;-3.71;71.38;96336.16;5089914;28;20040;-73
2022/01/17 09:52:34;;;;;;;21.27;6.47;;;;;;;-3.67;71.69;96330.28;5068797;28;20040;-73
2022/01/17 09:55:09;;;;;;;17.60;5.60;;;;;;;-3.65;71.47;96357.56;5090496;28;20079;-73
2022/01/17 09:57:39;;;;;;;16.87;5.83;;;;;;;-3.75;71.41;96344.97;5087581;28;20040;-73
2022/01/17 10:00:09;;;;;;;19.97;6.53;;;;;;;-3.74;71.61;96328.69;5088833;28;20039;-73
2022/01/17 10:02:40;;;;;;;17.80;5.60;;;;;;;-3.66;71.54;96319.34;5087917;28;20044;-73
2022/01/17 10:05:08;;;;;;;19.17;6.80;;;;;;;-3.64;71.57;96351.94;5088609;28;20043;-73
2022/01/17 10:07:56;;;;;;;18.77;6.43;;;;;;;-3.70;71.83;96336.97;5087964;28;20416;-74
2022/01/17 10:10:35;;;;;;;;;;;;;;;-3.59;71.49;96341.25;5071949;28;20070;-73
2022/01/17 10:13:07;;;;;;;23.00;7.53;;;;;;;-3.62;71.34;96319.63;5088686;28;19931;-72
2022/01/17 10:15:46;;;;;;;19.50;6.60;;;;;;;-3.61;71.62;96337.25;5090645;28;20159;-73
2022/01/17 10:18:27;;;;;;;23.70;7.27;;;;;;;-3.72;71.96;96286.50;5083210;28;20048;-73
2022/01/17 10:20:59;;;;;;;21.80;6.20;;;;;;;-3.68;72.52;96323.34;5078858;28;20074;-72
2022/01/17 10:23:43;;;;;;;20.73;6.73;;;;;;;-3.61;72.47;96316.66;5088858;28;20037;-70
2022/01/17 10:26:25;;;;;;;23.60;5.97;;;;;;;-3.59;72.26;96309.22;5084659;28;20052;-69
2022/01/17 10:36:47;;;;;;;21.20;7.23;;;;;;;-3.55;72.29;96277.41;5085379;28;20048;-70
2022/01/17 10:39:14;;;;;;;23.47;7.43;;;;;;;-3.47;72.49;96281.41;5074420;28;20056;-69
2022/01/17 10:41:40;;;;;;;20.73;7.57;;;;;;;-3.40;72.36;96297.97;5074409;28;20044;-68
2022/01/17 10:44:07;;;;;;;21.80;7.43;;;;;;;-3.45;72.30;96289.94;5085418;28;20045;-69
2022/01/17 10:46:35;;;;;;;22.27;6.63;;;;;;;-3.46;72.34;96286.47;5090542;28;20040;-71
2022/01/17 10:49:03;;;;;;;22.43;7.73;;;;;;;-3.34;72.09;96272.03;5064481;28;20127;-75
2022/01/17 10:51:32;;;;;;;19.07;7.63;;;;;;;-3.32;72.05;96267.22;5082988;28;20066;-74
2022/01/17 10:54:10;;;;;;;19.10;7.23;;;;;;;-3.35;72.34;96284.59;5089411;28;20197;-76
2022/01/17 10:56:47;;;;;;;;;;;;;;;-3.36;72.38;96263.47;5084573;28;20035;-75
2022/01/17 10:59:26;;;;;;;21.97;6.73;;;;;;;-3.38;72.44;96276.28;5071863;28;19924;-77
2022/01/17 11:01:54;;;;;;;21.80;7.68;;;;;;;-3.34;72.24;96256.00;5089534;28;20052;-75
2022/01/17 11:04:33;;;;;;;19.47;7.63;;;;;;;-3.35;72.18;96265.88;5076983;28;20060;-77
2022/01/17 11:07:05;;;;;;;26.57;8.47;;;;;;;-3.34;72.45;96275.50;5069477;28;20500;-77
2022/01/17 11:09:38;;;;;;;22.87;7.60;;;;;;;-3.41;72.48;96253.63;5072696;28;20037;-78
2022/01/17 11:12:09;;;;;;;22.80;8.10;;;;;;;-3.43;72.53;96245.84;5085438;28;20040;-77
2022/01/17 11:14:36;;;;;;;19.17;7.37;;;;;;;-3.44;72.48;96235.44;5086713;28;20051;-77
2022/01/17 11:17:14;;;;;;;21.58;7.07;;;;;;;-3.35;72.24;96241.03;5090525;28;20044;-77
2022/01/17 11:22:29;;;;;;;21.73;8.37;;;;;;;-3.32;72.23;96246.63;5083170;28;20044;-76
2022/01/17 11:24:57;;;;;;;26.57;8.30;;;;;;;-3.33;72.37;96255.72;5087225;28;20044;-76
2022/01/17 11:27:24;;;;;;;;;;;;;;;-3.30;72.28;96246.38;5072769;28;20048;-77
2022/01/17 11:29:50;;;;;;;21.80;7.73;;;;;;;-3.26;72.19;96235.94;5091951;28;19924;-78
2022/01/17 11:32:18;;;;;;;20.50;7.25;;;;;;;-3.26;72.19;96235.94;5080463;28;20561;-78
2022/01/17 11:34:45;;;;;;;21.90;7.93;;;;;;;-3.34;72.50;96230.06;5065593;28;20041;-77
2022/01/17 11:37:12;;;;;;;22.73;7.93;;;;;;;-3.32;72.57;96235.94;5084938;28;20075;-76
2022/01/17 11:39:45;;;;;;;24.02;8.07;;;;;;;-3.36;72.74;96207.34;5083220;28;20059;-77
2022/01/17 11:42:29;;;;;;;23.60;8.33;;;;;;;-3.27;72.64;96203.06;5083640;28;20048;-77
2022/01/17 11:44:56;;;;;;;18.50;7.23;;;;;;;-3.32;72.70;96209.22;5112588;28;20503;-77
2022/01/17 11:47:49;;;;;;;26.00;8.20;;;;;;;-3.28;72.99;96215.63;5063043;28;20581;-78
2022/01/17 11:50:41;;;;;;;25.60;8.00;;;;;;;-3.26;72.91;96201.97;5084642;28;20048;-76
2022/01/17 11:53:49;;;;;;;21.27;8.07;;;;;;;-3.26;72.97;96209.22;5087287;28;20174;-76
2022/01/17 11:56:35;;;;;;;25.07;7.57;;;;;;;-3.29;73.23;96206.00;5075644;28;20098;-75